Terminal Aerodrome Forecast
Issued by NWS Louisville, KY

Home | Current Version | Previous Version | Text Only | Print | Product List | Glossary On
Versions: 1 2 3 4 5 6 7 8 9 10 11 12 13 14
818
FTUS43 KLMK 110520
TAFLEX
TAF
KLEX 110520Z 1106/1206 25005KT P6SM BKN025 BKN060
     FM110900 27004KT P6SM BKN060
     FM111800 33004KT P6SM SCT250=

USA.gov is the U.S. government's official web portal to all federal, state and local government web resources and services.